Terminal Aerodrome Forecast
Issued by NWS

Home | Current Version | Previous Version | Text Only | Print | Product List | Glossary On
Versions: 1 2 3 4 5 6 7 8 9 10 11 12 13 14 15 16 17 18 19 20 21 22 23 24 25 26 27 28
308
FTUS46 KSEW 252337
TAFPAE
TAF
KPAE 252337Z 2600/2624 22008KT P6SM BKN070 OVC100
     FM260100 18012G18KT 6SM -RA BKN040 OVC060
     FM260500 18012G20KT P6SM VCSH BKN030 OVC040
     FM261000 17012G17KT P6SM OVC030
     FM261700 17010KT P6SM BKN050
     FM262100 19005KT P6SM BKN100=

USA.gov is the U.S. government's official web portal to all federal, state and local government web resources and services.